createdAt,value
2023-08-09T00:02:37.989Z,96582.38
2023-08-09T00:07:40.853Z,96587.78
2023-08-09T00:12:46.490Z,96572.56
2023-08-09T00:17:49.568Z,96570.69
2023-08-09T00:22:52.530Z,96551.94
2023-08-09T00:27:57.086Z,96570.94
2023-08-09T00:32:59.959Z,96582.38
2023-08-09T00:38:04.233Z,96576.38
2023-08-09T00:43:12.110Z,96574.75
2023-08-09T00:48:15.147Z,96573.97
2023-08-09T00:53:18.276Z,96574.25
2023-08-09T00:58:22.485Z,96569.59
2023-08-09T01:03:25.630Z,96576.97
2023-08-09T01:08:32.171Z,96578.06
2023-08-09T01:13:38.188Z,96579.13
2023-08-09T01:18:42.983Z,96586.19
2023-08-09T01:23:48.487Z,96582.66
2023-08-09T01:28:51.320Z,96577.50
2023-08-09T01:33:54.208Z,96579.13
2023-08-09T01:39:02.912Z,96576.69
2023-08-09T01:44:06.554Z,96587.56
2023-08-09T01:49:11.402Z,96597.59
2023-08-09T01:54:18.389Z,96585.13
2023-08-09T01:59:21.313Z,96578.06
2023-08-09T02:04:25.531Z,96583.50
2023-08-09T02:09:30.268Z,96581.88
2023-08-09T02:14:33.170Z,96577.53
2023-08-09T02:19:36.258Z,96587.59
2023-08-09T02:24:40.446Z,96576.97
2023-08-09T02:29:43.349Z,96583.50
2023-08-09T02:34:46.190Z,96588.63
2023-08-09T02:39:51.211Z,96604.91
2023-08-09T02:44:54.065Z,96603.59
2023-08-09T02:49:57.084Z,96618.22
2023-08-09T02:55:01.286Z,96618.53
2023-08-09T03:00:05.379Z,96626.66
2023-08-09T03:05:09.607Z,96629.66
2023-08-09T03:10:13.852Z,96609.03
2023-08-09T03:15:17.198Z,96616.34
2023-08-09T03:20:20.101Z,96623.97
2023-08-09T03:25:24.643Z,96602.25
2023-08-09T03:30:27.596Z,96618.53
2023-08-09T03:35:30.522Z,96638.63
2023-08-09T03:40:34.745Z,96635.91
2023-08-09T03:45:38.011Z,96634.56
2023-08-09T03:50:41.115Z,96659.78
2023-08-09T03:55:45.359Z,96663.59
2023-08-09T04:00:48.245Z,96650.28
2023-08-09T04:05:51.303Z,96650.28
2023-08-09T04:10:55.820Z,96659.53
2023-08-09T04:15:58.785Z,96667.66
2023-08-09T04:21:01.653Z,96691.25
2023-08-09T04:26:05.870Z,96686.94
2023-08-09T04:31:08.733Z,96683.69
2023-08-09T04:36:11.758Z,96680.97
2023-08-09T04:41:16.951Z,96688.28
2023-08-09T04:46:20.210Z,96692.09
2023-08-09T04:51:23.252Z,96684.22
2023-08-09T04:56:27.495Z,96686.13
2023-08-09T05:01:30.578Z,96679.88
2023-08-09T05:06:33.466Z,96678.00
2023-08-09T05:11:39.778Z,96682.59
2023-08-09T05:16:42.671Z,96677.44
2023-08-09T05:21:45.658Z,96675.81
2023-08-09T05:26:49.918Z,96683.97
2023-08-09T05:31:52.849Z,96688.59
2023-08-09T05:36:55.771Z,96682.34
2023-08-09T05:42:00.093Z,96685.88
2023-08-09T05:47:03.384Z,96692.41
2023-08-09T05:52:07.164Z,96689.94
2023-08-09T05:57:11.407Z,96695.09
2023-08-09T06:02:14.357Z,96694.56
2023-08-09T06:07:17.414Z,96698.09
2023-08-09T06:12:21.672Z,96700.81
2023-08-09T06:17:24.584Z,96701.88
2023-08-09T06:22:27.497Z,96701.88
2023-08-09T06:27:32.217Z,96709.22
2023-08-09T06:32:35.261Z,96707.31
2023-08-09T06:37:38.187Z,96712.75
2023-08-09T06:42:42.346Z,96709.22
2023-08-09T06:47:45.331Z,96713.81
2023-08-09T06:52:49.872Z,96723.59
2023-08-09T06:57:54.043Z,96720.06
2023-08-09T07:02:56.932Z,96723.84
2023-08-09T07:08:01.966Z,96719.22
2023-08-09T07:13:06.771Z,96712.16
2023-08-09T07:18:10.514Z,96717.84
2023-08-09T07:23:13.970Z,96708.03
2023-08-09T07:28:19.302Z,96711.81
2023-08-09T07:33:22.847Z,96703.41
2023-08-09T07:38:25.768Z,96708.53
2023-08-09T07:43:29.961Z,96720.44
2023-08-09T07:48:32.988Z,96715.25
2023-08-09T07:53:36.369Z,96718.22
2023-08-09T07:58:40.704Z,96712.81
2023-08-09T08:03:43.674Z,96720.97
2023-08-09T08:08:47.554Z,96717.19
2023-08-09T08:13:51.828Z,96708.78
2023-08-09T08:18:54.734Z,96709.63
2023-08-09T08:23:58.485Z,96707.97
2023-08-09T08:29:03.623Z,96706.25
2023-08-09T08:34:07.327Z,96704.34
2023-08-09T08:39:16.550Z,96702.94
2023-08-09T08:44:19.607Z,96707.84
2023-08-09T08:49:26.346Z,96694.22
2023-08-09T08:54:31.986Z,96690.69
2023-08-09T08:59:35.379Z,96682.53
2023-08-09T09:04:40.081Z,96682.75
2023-08-09T09:09:58.983Z,96687.31
2023-08-09T09:15:02.120Z,96681.34
2023-08-09T09:20:07.580Z,96673.72
2023-08-09T09:25:12.932Z,96672.84
2023-08-09T09:30:15.924Z,96675.06
2023-08-09T09:35:19.157Z,96676.16
2023-08-09T09:40:27.252Z,96671.78
2023-08-09T09:45:31.834Z,96670.41
2023-08-09T09:50:35.373Z,96664.97
2023-08-09T09:55:39.797Z,96669.88
2023-08-09T10:00:45.923Z,96661.44
2023-08-09T10:05:49.412Z,96660.91
2023-08-09T10:10:55.951Z,96647.31
2023-08-09T10:16:00.036Z,96637.34
2023-08-09T10:21:03.665Z,96628.94
2023-08-09T10:26:07.853Z,96634.78
2023-08-09T10:31:10.986Z,96627.09
2023-08-09T10:36:20.572Z,96630.34
2023-08-09T10:41:27.647Z,96631.94
2023-08-09T10:46:34.678Z,96628.09
2023-08-09T10:51:48.114Z,96628.34
2023-08-09T10:56:53.638Z,96626.28
2023-08-09T11:01:58.320Z,96621.41
2023-08-09T11:07:01.275Z,96624.34
2023-08-09T11:12:08.360Z,96623.53
2023-08-09T11:17:16.335Z,96625.66
2023-08-09T11:22:19.457Z,96621.28
2023-08-09T11:27:23.691Z,96618.56
2023-08-09T11:32:28.265Z,96604.91
2023-08-09T11:37:32.147Z,96594.44
2023-08-09T11:42:36.410Z,96603.94
2023-08-09T11:47:39.420Z,96603.94
2023-08-09T11:52:42.277Z,96592.41
2023-08-09T11:57:46.630Z,96591.75
2023-08-09T12:02:50.886Z,96594.88
2023-08-09T12:08:04.652Z,96593.09
2023-08-09T12:13:10.820Z,96597.38
2023-08-09T12:18:13.675Z,96600.28
2023-08-09T12:23:17.158Z,96589.94
2023-08-09T12:28:21.432Z,96600.47
2023-08-09T12:33:27.109Z,96593.91
2023-08-09T12:38:30.798Z,96594.38
2023-08-09T12:43:35.029Z,96600.91
2023-08-09T12:48:38.709Z,96601.50
2023-08-09T12:53:41.805Z,96595.63
2023-08-09T12:58:46.140Z,96594.25
2023-08-09T13:03:49.446Z,96586.38
2023-08-09T13:08:52.517Z,96578.38
2023-08-09T13:13:57.261Z,96578.31
2023-08-09T13:19:00.801Z,96576.97
2023-08-09T13:24:06.762Z,96583.88
2023-08-09T13:29:11.693Z,96581.25
2023-08-09T13:34:14.823Z,96584.31
2023-08-09T13:39:17.680Z,96576.28
2023-08-09T13:44:22.092Z,96590.84
2023-08-09T13:49:25.046Z,96585.19
2023-08-09T13:54:28.802Z,96574.59
2023-08-09T13:59:34.348Z,96572.91
2023-08-09T14:04:37.200Z,96570.13
2023-08-09T14:09:40.126Z,96563.91
2023-08-09T14:14:44.335Z,96557.78
2023-08-09T14:19:47.179Z,96543.88
2023-08-09T14:24:50.781Z,96542.09
2023-08-09T14:29:57.506Z,96552.25
2023-08-09T14:35:00.622Z,96558.13
2023-08-09T14:40:07.997Z,96547.34
2023-08-09T14:45:12.969Z,96554.13
2023-08-09T14:50:15.923Z,96562.56
2023-08-09T14:55:18.877Z,96564.69
2023-08-09T15:00:23.440Z,96573.75
2023-08-09T15:05:26.455Z,96568.22
2023-08-09T15:10:29.345Z,96577.13
2023-08-09T15:15:33.593Z,96571.16
2023-08-09T15:20:38.001Z,96583.47
2023-08-09T15:25:40.972Z,96582.88
2023-08-09T15:30:45.266Z,96582.72
2023-08-09T15:35:48.238Z,96578.69
2023-08-09T15:40:51.119Z,96581.63
2023-08-09T15:45:55.402Z,96581.56
2023-08-09T15:50:58.453Z,96584.19
2023-08-09T15:56:02.213Z,96582.38
2023-08-09T16:01:06.477Z,96588.56
2023-08-09T16:06:12.276Z,96588.97
2023-08-09T16:11:15.313Z,96588.63
2023-08-09T16:16:34.041Z,96587.09
2023-08-09T16:21:37.409Z,96583.66
2023-08-09T16:26:40.356Z,96588.13
2023-08-09T16:31:44.591Z,96596.41
2023-08-09T16:36:47.540Z,96589.81
2023-08-09T16:41:51.731Z,96588.84
2023-08-09T16:46:59.716Z,96585.41
2023-08-09T16:52:03.808Z,96588.03
2023-08-09T16:57:07.388Z,96594.78
2023-08-09T17:02:11.721Z,96592.25
2023-08-09T17:07:14.800Z,96588.72
2023-08-09T17:12:18.554Z,96592.75
2023-08-09T17:17:23.591Z,96589.09
2023-08-09T17:22:26.838Z,96589.81
2023-08-09T17:27:30.065Z,96582.09
2023-08-09T17:32:34.355Z,96577.75
2023-08-09T17:37:37.464Z,96583.03
2023-08-09T17:42:43.088Z,96579.59
2023-08-09T17:47:47.616Z,96584.06
2023-08-09T17:52:50.610Z,96584.97
2023-08-09T17:57:53.769Z,96589.44
2023-08-09T18:02:58.157Z,96581.75
2023-08-09T18:08:01.026Z,96582.66
2023-08-09T18:13:04.271Z,96593.09
2023-08-09T18:18:09.589Z,96594.97
2023-08-09T18:23:12.704Z,96593.34
2023-08-09T18:28:15.586Z,96605.25
2023-08-09T18:33:19.798Z,96597.53
2023-08-09T18:38:22.912Z,96601.84
2023-08-09T18:43:26.175Z,96598.16
2023-08-09T18:48:31.057Z,96595.53
2023-08-09T18:53:33.996Z,96597.84
2023-08-09T18:58:37.539Z,96603.41
2023-08-09T19:03:43.595Z,96603.81
2023-08-09T19:08:46.577Z,96601.44
2023-08-09T19:13:49.535Z,96606.97
2023-08-09T19:18:54.681Z,96619.34
2023-08-09T19:23:57.761Z,96617.78
2023-08-09T19:29:00.694Z,96622.75
2023-08-09T19:34:05.113Z,96625.03
2023-08-09T19:39:08.092Z,96635.38
2023-08-09T19:44:11.009Z,96641.22
2023-08-09T19:49:15.502Z,96635.56
2023-08-09T19:54:18.410Z,96635.63
2023-08-09T19:59:21.307Z,96638.13
2023-08-09T20:04:25.512Z,96635.16
2023-08-09T20:09:28.476Z,96641.97
2023-08-09T20:14:31.344Z,96642.53
2023-08-09T20:19:35.520Z,96643.16
2023-08-09T20:24:42.722Z,96643.72
2023-08-09T20:29:45.591Z,96647.53
2023-08-09T20:34:49.804Z,96644.28
2023-08-09T20:39:52.852Z,96649.50
2023-08-09T20:44:55.727Z,96649.81
2023-08-09T20:50:00.781Z,96653.91
2023-08-09T20:55:04.405Z,96649.03
2023-08-09T21:00:13.448Z,96636.81
2023-08-09T21:05:17.698Z,96648.31
2023-08-09T21:10:21.005Z,96656.47
2023-08-09T21:15:24.130Z,96649.94
2023-08-09T21:20:28.500Z,96662.19
2023-08-09T21:30:41.954Z,96672.03
2023-08-09T21:35:46.190Z,96679.97
2023-08-09T21:40:57.996Z,96681.88
2023-08-09T21:46:00.966Z,96687.31
2023-08-09T21:51:05.208Z,96676.75
2023-08-09T21:56:08.051Z,96684.66
2023-08-09T22:01:10.962Z,96677.56
2023-08-09T22:06:15.405Z,96684.13
2023-08-09T22:11:18.667Z,96685.22
2023-08-09T22:16:25.229Z,96687.13
2023-08-09T22:26:32.894Z,96684.19
2023-08-09T22:31:35.802Z,96685.28
2023-08-09T22:36:40.048Z,96696.16
2023-08-09T22:41:42.879Z,96706.53
2023-08-09T22:46:45.816Z,96712.25
2023-08-09T22:51:50.086Z,96711.47
2023-08-09T22:56:52.999Z,96728.88
2023-08-09T23:01:56.814Z,96726.47
2023-08-09T23:07:01.026Z,96729.19
2023-08-09T23:12:04.680Z,96732.97
2023-08-09T23:17:08.177Z,96733.28
2023-08-09T23:22:12.352Z,96736.28
2023-08-09T23:27:15.262Z,96737.38
2023-08-09T23:32:18.182Z,96738.16
2023-08-09T23:37:22.464Z,96743.09
2023-08-09T23:42:26.691Z,96741.47
2023-08-09T23:47:29.597Z,96735.22
2023-08-09T23:52:34.108Z,96740.91
2023-08-09T23:57:36.986Z,96728.41
